Dades meteomassalio
Diari Summary for Diciembre 4, 2017 Units:  English    Metric   Both
« Previous Day
Next Day »
Diari Semanal Mensual Anual Personalitzat
  Maxima: Minima: Mijana:
Temperatura: 52 °F 26.1 °F 37.8 °F
Rosada: 40.6 °F 19.2 °F 30.7 °F
Humitat: 86 % 61 % 76 %
Velocitat del vent: 19.6 mph 0 mph 6.3 mph
Racha vent: 19.6 mph - -
Vent:- - WNW
Pressio: 30.7 in 30.5 in -
Pluja: 0 in    
Historical Graphs
 
 
Tabular Data for Diciembre 4, 2017
Time Temperature Dew Point Pressure Wind Wind Speed Wind Gust Humidity Rainfall Rate (Hourly) solar Conditions
00:02 27 °F 19.8 °F 30.5 in West 10.4 mph 10.4 mph 74 % 0 in 0.0 W/m2 CLR
00:03 27 °F 19.8 °F 30.5 in West 8.1 mph 8.1 mph 74 % 0 in 0.0 W/m2 CLR
00:08 27 °F 19.8 °F 30.5 in WNW 6.9 mph 6.9 mph 74 % 0 in 0.0 W/m2 CLR
00:13 27 °F 19.8 °F 30.5 in West 8.1 mph 8.1 mph 74 % 0 in 0.0 W/m2 CLR
00:18 27 °F 20.1 °F 30.5 in WSW 10.4 mph 10.4 mph 75 % 0 in 0.0 W/m2 CLR
00:23 27 °F 20.1 °F 30.5 in West 8.1 mph 8.1 mph 75 % 0 in 0.0 W/m2 CLR
00:28 27 °F 20.5 °F 30.5 in West 6.9 mph 6.9 mph 76 % 0 in 0.0 W/m2 CLR
00:33 27 °F 20.7 °F 30.5 in West 8.1 mph 8.1 mph 77 % 0 in 0.0 W/m2 CLR
00:38 27 °F 20.7 °F 30.5 in WSW 4.6 mph 4.6 mph 77 % 0 in 0.0 W/m2 CLR
00:43 26.1 °F 19.2 °F 30.5 in WSW 5 mph 5 mph 75 % 0 in 0.0 W/m2 CLR
00:48 26.1 °F 19.6 °F 30.5 in WSW 8.1 mph 8.1 mph 76 % 0 in 0.0 W/m2 CLR
00:53 26.1 °F 20.7 °F 30.5 in West 11.5 mph 11.5 mph 80 % 0 in 0.0 W/m2 CLR
00:58 26.1 °F 20.7 °F 30.5 in WNW 9.2 mph 9.2 mph 80 % 0 in 0.0 W/m2 CLR
01:03 27 °F 21 °F 30.6 in WNW 9.2 mph 9.2 mph 78 % 0 in 0.0 W/m2 CLR
01:08 27 °F 20.7 °F 30.6 in West 5.8 mph 5.8 mph 77 % 0 in 0.0 W/m2 CLR
01:13 26.1 °F 19.6 °F 30.6 in West 3.5 mph   76 % 0 in 0.0 W/m2 CLR
01:18 26.1 °F 19.2 °F 30.5 in Calm     75 % 0 in 0.0 W/m2 CLR
01:19 26.1 °F 19.6 °F 30.5 in Calm     76 % 0 in 0.0 W/m2 CLR
01:24 26.1 °F 20.1 °F 30.5 in Calm     78 % 0 in 0.0 W/m2 CLR
01:29 26.1 °F 20.5 °F 30.5 in Calm     79 % 0 in 0.0 W/m2 CLR
01:34 26.1 °F 20.7 °F 30.6 in Calm     80 % 0 in 0.0 W/m2 CLR
01:39 26.1 °F 20.5 °F 30.6 in Calm     79 % 0 in 0.0 W/m2 CLR
01:44 26.1 °F 20.1 °F 30.6 in Calm     78 % 0 in 0.0 W/m2 CLR
01:49 26.1 °F 20.7 °F 30.6 in Calm     80 % 0 in 0.0 W/m2 CLR
01:54 26.1 °F 21.6 °F 30.6 in West 6 mph 6 mph 83 % 0 in 0.0 W/m2 CLR
01:59 26.1 °F 21.4 °F 30.6 in West 3.5 mph 3.5 mph 82 % 0 in 0.0 W/m2 CLR
02:04 26.1 °F 21.4 °F 30.6 in West 6.9 mph 6.9 mph 82 % 0 in 0.0 W/m2 CLR
02:09 26.1 °F 21 °F 30.6 in West 9.2 mph 9.2 mph 81 % 0 in 0.0 W/m2 CLR
02:14 26.1 °F 20.7 °F 30.6 in WNW 5.8 mph 5.8 mph 80 % 0 in 0.0 W/m2 CLR
02:19 27 °F 21.4 °F 30.6 in West 4.6 mph 4.6 mph 79 % 0 in 0.0 W/m2 CLR
02:24 27 °F 21.4 °F 30.6 in West 3.5 mph 3.5 mph 79 % 0 in 0.0 W/m2 CLR
02:29 27 °F 21.4 °F 30.6 in West 2.3 mph   79 % 0 in 0.0 W/m2 CLR
02:34 27 °F 21 °F 30.6 in Calm     78 % 0 in 0.0 W/m2 CLR
02:39 27 °F 21.7 °F 30.6 in Calm     80 % 0 in 0.0 W/m2 CLR
02:44 27 °F 21.7 °F 30.6 in Calm     80 % 0 in 0.0 W/m2 CLR
02:49 27 °F 22.3 °F 30.6 in WNW 4.6 mph 4.6 mph 82 % 0 in 0.0 W/m2 CLR
02:54 26.1 °F 20.7 °F 30.6 in WNW 5 mph 5 mph 80 % 0 in 0.0 W/m2 CLR
02:59 26.1 °F 20.7 °F 30.6 in West 3.5 mph 3.5 mph 80 % 0 in 0.0 W/m2 CLR
03:04 26.1 °F 20.5 °F 30.6 in Calm     79 % 0 in 0.0 W/m2 CLR
03:09 26.1 °F 20.5 °F 30.6 in Calm     79 % 0 in 0.0 W/m2 CLR
03:14 26.1 °F 20.7 °F 30.6 in Calm     80 % 0 in 0.0 W/m2 CLR
03:19 26.1 °F 20.7 °F 30.6 in Calm     80 % 0 in 0.0 W/m2 CLR
03:24 26.1 °F 20.5 °F 30.6 in Calm     79 % 0 in 0.0 W/m2 CLR
03:29 27 °F 21.7 °F 30.6 in Calm   0.8 mph 80 % 0 in 0.0 W/m2 CLR
03:34 27 °F 21.9 °F 30.6 in Calm     81 % 0 in 0.0 W/m2 CLR
03:39 27 °F 21.9 °F 30.6 in WNW 4.6 mph 4.6 mph 81 % 0 in 0.0 W/m2 CLR
03:44 28 °F 22.8 °F 30.6 in WNW 8.1 mph 8.1 mph 81 % 0 in 0.0 W/m2 CLR
03:49 28 °F 22.6 °F 30.6 in West 8.1 mph 8.1 mph 80 % 0 in 0.0 W/m2 CLR
03:54 28 °F 22.6 °F 30.6 in NW 8.1 mph 8.1 mph 80 % 0 in 0.0 W/m2 CLR
03:59 28 °F 22.6 °F 30.6 in NNW 9 mph 9 mph 80 % 0 in 0.0 W/m2 CLR
04:04 28 °F 22.6 °F 30.6 in NW 8 mph 8 mph 80 % 0 in 0.0 W/m2 CLR
04:09 28.9 °F 23.5 °F 30.6 in WNW 11.5 mph 11.5 mph 80 % 0 in 0.0 W/m2 CLR
04:16 28.9 °F 23.5 °F 30.6 in WNW 6.9 mph 6.9 mph 80 % 0 in 0.0 W/m2 CLR
04:19 28.9 °F 23.5 °F 30.6 in NW 8.1 mph 8.1 mph 80 % 0 in 0.0 W/m2 CLR
04:21 28.9 °F 23.5 °F 30.6 in NW 11.5 mph 11.5 mph 80 % 0 in 0.0 W/m2 CLR
04:22 28.9 °F 23.5 °F 30.6 in NW 11.5 mph 11.5 mph 80 % 0 in 0.0 W/m2 CLR
04:23 28.9 °F 23.5 °F 30.6 in WNW 11.5 mph 11.5 mph 80 % 0 in 0.0 W/m2 CLR
04:27 30 °F 24.6 °F 30.6 in WNW 8.1 mph 8.1 mph 80 % 0 in 0.0 W/m2 CLR
04:29 30.9 °F 25.5 °F 30.6 in WNW 9.2 mph 9.2 mph 80 % 0 in 0.0 W/m2 CLR
04:32 32 °F 26.4 °F 30.6 in WNW 9.2 mph 9.2 mph 80 % 0 in 0.0 W/m2 CLR
04:37 33.1 °F 27.5 °F 30.6 in Calm     80 % 0 in 0.0 W/m2 CLR
04:39 33.1 °F 27.5 °F 30.6 in WNW 7 mph 7 mph 80 % 0 in 0.0 W/m2 CLR
04:42 34 °F 28.8 °F 30.6 in West 10.4 mph 10.4 mph 81 % 0 in 0.0 W/m2 CLR
04:47 36 °F 30.7 °F 30.6 in NW 9.2 mph 9.2 mph 81 % 0 in 0.0 W/m2 CLR
04:52 37.9 °F 32.4 °F 30.6 in WNW 9.2 mph 9.2 mph 80 % 0 in 0.0 W/m2 CLR
04:57 39.9 °F 34.3 °F 30.6 in WNW 10.4 mph 10.4 mph 80 % 0 in 0.0 W/m2 CLR
05:02 39.9 °F 34.3 °F 30.6 in NW 11.5 mph 11.5 mph 80 % 0 in 0.0 W/m2 CLR
05:07 41 °F 35.2 °F 30.6 in WNW 13.8 mph 13.8 mph 80 % 0 in 0.0 W/m2 CLR
05:12 41 °F 35.2 °F 30.6 in West 11.5 mph 11.5 mph 80 % 0 in 0.0 W/m2 CLR
05:17 42.1 °F 36.3 °F 30.6 in West 9.2 mph 9.2 mph 80 % 0 in 0.0 W/m2 CLR
05:22 42.1 °F 36.3 °F 30.6 in NW 11 mph 11 mph 80 % 0 in 0.0 W/m2 CLR
05:27 41 °F 35.2 °F 30.6 in WNW 10 mph 10 mph 80 % 0 in 0.0 W/m2 CLR
05:32 42.1 °F 36.3 °F 30.6 in WNW 11 mph 11 mph 80 % 0 in 0.0 W/m2 CLR
05:37 42.1 °F 36.3 °F 30.6 in NW 9.2 mph 9.2 mph 80 % 0 in 0.0 W/m2 CLR
05:42 42.1 °F 36.3 °F 30.6 in WNW 9.2 mph 9.2 mph 80 % 0 in 0.0 W/m2 CLR
05:47 42.1 °F 36.3 °F 30.6 in WNW 5.8 mph 5.8 mph 80 % 0 in 0.0 W/m2 CLR
05:52 42.1 °F 36.7 °F 30.6 in WNW 10.4 mph 10.4 mph 81 % 0 in 0.0 W/m2 CLR
05:57 41 °F 35.6 °F 30.6 in WNW 8.1 mph 8.1 mph 81 % 0 in 0.0 W/m2 CLR
06:02 41 °F 35.6 °F 30.6 in NW 11 mph 11 mph 81 % 0 in 0.0 W/m2 CLR
06:03 41 °F 35.6 °F 30.6 in WNW 11.5 mph 11.5 mph 81 % 0 in 0.0 W/m2 CLR
06:08 41 °F 35.6 °F 30.6 in NW 9.2 mph 9.2 mph 81 % 0 in 0.0 W/m2 CLR
06:13 41 °F 35.6 °F 30.6 in NW 8.1 mph 8.1 mph 81 % 0 in 0.0 W/m2 CLR
06:18 41 °F 35.6 °F 30.6 in NNW 9.2 mph 9.2 mph 81 % 0 in 0.0 W/m2 CLR
06:23 41 °F 35.6 °F 30.6 in NW 5.8 mph 5.8 mph 81 % 0 in 0.0 W/m2 CLR
06:28 41 °F 36 °F 30.6 in WNW 7 mph 7 mph 82 % 0 in 0.0 W/m2 CLR
06:29 41 °F 36 °F 30.6 in WNW 7 mph 7 mph 82 % 0 in 0.0 W/m2 CLR
06:34 41 °F 35.6 °F 30.6 in NW 8.1 mph 8.1 mph 81 % 0 in 0.0 W/m2 CLR
06:39 41 °F 35.6 °F 30.6 in NW 8.1 mph 8.1 mph 81 % 0 in 0.0 W/m2 CLR
06:44 41 °F 35.6 °F 30.6 in NNW 6.9 mph 6.9 mph 81 % 0 in 0.0 W/m2 CLR
06:49 41 °F 35.6 °F 30.6 in NW 4.6 mph 4.6 mph 81 % 0 in 0.0 W/m2 CLR
06:54 41 °F 35.6 °F 30.6 in NW 5.8 mph 5.8 mph 81 % 0 in 0.0 W/m2 CLR
06:59 41 °F 35.6 °F 30.6 in NW 4.6 mph 4.6 mph 81 % 0 in 0.0 W/m2 CLR
07:04 41 °F 35.6 °F 30.6 in Calm     81 % 0 in 0.0 W/m2 CLR
07:09 41 °F 35.6 °F 30.6 in WNW 5.8 mph 5.8 mph 81 % 0 in 0.0 W/m2 CLR
07:14 41 °F 35.6 °F 30.6 in NW 6.9 mph 6.9 mph 81 % 0 in 0.0 W/m2 CLR
07:19 39.9 °F 34.5 °F 30.6 in WNW 3.5 mph 3.5 mph 81 % 0 in 0.0 W/m2 CLR
07:24 39.9 °F 34.5 °F 30.6 in WNW 4.6 mph 4.6 mph 81 % 0 in 0.0 W/m2 CLR
07:29 39.9 °F 34.5 °F 30.6 in WNW 5 mph 5 mph 81 % 0 in 0.0 W/m2 CLR
07:34 39.9 °F 34.5 °F 30.6 in WNW 5.8 mph 5.8 mph 81 % 0 in 0.0 W/m2 CLR
07:39 39.9 °F 34.5 °F 30.6 in WNW 8.1 mph 8.1 mph 81 % 0 in 0.0 W/m2 CLR
07:44 39.9 °F 34.5 °F 30.6 in NW 6.9 mph 6.9 mph 81 % 0 in 0.0 W/m2 CLR
07:49 39.9 °F 34.5 °F 30.6 in WNW 9.2 mph 9.2 mph 81 % 0 in 0.0 W/m2 CLR
07:54 39.9 °F 34.5 °F 30.6 in NW 8 mph 8 mph 81 % 0 in 0.0 W/m2 CLR
07:59 39.9 °F 34.5 °F 30.6 in NW 9.2 mph 9.2 mph 81 % 0 in 0.0 W/m2 CLR
08:04 39 °F 34 °F 30.6 in West 11.5 mph 11.5 mph 82 % 0 in 0.0 W/m2 OVC
08:09 39 °F 34 °F 30.6 in WNW 4.6 mph   82 % 0 in 5.0 W/m2 OVC
08:14 37.9 °F 33.1 °F 30.6 in WNW 8 mph 8 mph 82 % 0 in 5.0 W/m2 OVC
08:19 37 °F 32.4 °F 30.6 in WNW 5.8 mph 5.8 mph 83 % 0 in 9.0 W/m2 BKN
08:24 36 °F 30.9 °F 30.6 in WNW 6 mph 6 mph 82 % 0 in 12.0 W/m2 BKN
08:29 36 °F 30.9 °F 30.6 in WNW 4 mph 4 mph 82 % 0 in 14.0 W/m2 BKN
08:34 35.1 °F 30.4 °F 30.6 in Calm     83 % 0 in 16.0 W/m2 BKN
08:39 35.1 °F 30.4 °F 30.6 in Calm     83 % 0 in 18.0 W/m2 BKN
08:44 35.1 °F 30.4 °F 30.6 in Calm     83 % 0 in 26.0 W/m2 BKN
08:49 36 °F 31.3 °F 30.6 in Calm     83 % 0 in 30.0 W/m2 BKN
08:54 36 °F 31.6 °F 30.6 in NW 4 mph 4 mph 84 % 0 in 33.0 W/m2 BKN
08:59 37 °F 32.5 °F 30.6 in Calm     84 % 0 in 37.0 W/m2 BKN
09:04 37 °F 32.4 °F 30.6 in NW 6.9 mph 6.9 mph 83 % 0 in 39.0 W/m2 BKN
09:09 37.9 °F 33.3 °F 30.6 in WNW 7 mph 7 mph 83 % 0 in 44.0 W/m2 BKN
09:14 39 °F 34 °F 30.6 in NW 10.4 mph 10.4 mph 82 % 0 in 44.0 W/m2 BKN
09:19 39.9 °F 34.9 °F 30.6 in NW 10.4 mph 10.4 mph 82 % 0 in 51.0 W/m2 SCT
09:24 41 °F 35.6 °F 30.6 in WNW 6.9 mph 6.9 mph 81 % 0 in 60.0 W/m2 SCT
09:29 42.1 °F 36.7 °F 30.6 in NW 6.9 mph 6.9 mph 81 % 0 in 72.0 W/m2 SCT
09:35 43 °F 37.2 °F 30.6 in WNW 9.2 mph 9.2 mph 80 % 0 in 74.0 W/m2 FEW
09:40 43 °F 37.2 °F 30.6 in WNW 6.9 mph 6.9 mph 80 % 0 in 77.0 W/m2 FEW
09:45 44.1 °F 37.9 °F 30.6 in WNW 12 mph 12 mph 79 % 0 in 104.0 W/m2 FEW
09:50 44.1 °F 37.9 °F 30.6 in NW 10 mph 10 mph 79 % 0 in 113.0 W/m2 CLR
09:55 45 °F 38.7 °F 30.6 in NW 11.5 mph 11.5 mph 78 % 0 in 95.0 W/m2 CLR
10:00 45 °F 38.7 °F 30.6 in WNW 12.7 mph 12.7 mph 78 % 0 in 102.0 W/m2 CLR
10:05 45 °F 38.7 °F 30.6 in NNW 19.6 mph 19.6 mph 78 % 0 in 104.0 W/m2 CLR
10:10 45 °F 38.7 °F 30.6 in NW 15 mph 15 mph 78 % 0 in 116.0 W/m2 CLR
10:15 45 °F 38.7 °F 30.6 in NNW 11.5 mph 11.5 mph 78 % 0 in 113.0 W/m2 CLR
10:20 45 °F 38.7 °F 30.6 in NW 15 mph 15 mph 78 % 0 in 104.0 W/m2 CLR
10:25 46 °F 39.2 °F 30.6 in WNW 13.8 mph 13.8 mph 77 % 0 in 132.0 W/m2 CLR
10:30 46 °F 39.2 °F 30.6 in WNW 15 mph 15 mph 77 % 0 in 118.0 W/m2 CLR
10:35 46 °F 39.2 °F 30.7 in NW 6.9 mph 6.9 mph 77 % 0 in 130.0 W/m2 CLR
10:40 46 °F 38.8 °F 30.7 in NNW 13.8 mph 13.8 mph 76 % 0 in 144.0 W/m2 CLR
10:45 46.9 °F 39.7 °F 30.7 in WNW 5.8 mph 5.8 mph 76 % 0 in 153.0 W/m2 CLR
10:50 46.9 °F 39.6 °F 30.7 in WNW 10.4 mph 10.4 mph 75 % 0 in 190.0 W/m2 CLR
11:05 46.9 °F 38.8 °F 30.7 in NW 11.5 mph 11.5 mph 73 % 0 in 163.0 W/m2 CLR
11:10 48 °F 39.7 °F 30.7 in North 17.3 mph 17.3 mph 73 % 0 in 113.0 W/m2 CLR
11:15 46.9 °F 38.8 °F 30.7 in NW 13 mph 13 mph 73 % 0 in 83.0 W/m2 CLR
11:20 46.9 °F 38.8 °F 30.7 in NW 15 mph 15 mph 73 % 0 in 114.0 W/m2 CLR
11:25 46.9 °F 39 °F 30.7 in NW 16.1 mph 16.1 mph 74 % 0 in 114.0 W/m2 CLR
11:30 46.9 °F 38.8 °F 30.7 in NW 13.8 mph 13.8 mph 73 % 0 in 128.0 W/m2 CLR
11:35 46.9 °F 38.8 °F 30.7 in NW 13.8 mph 13.8 mph 73 % 0 in 125.0 W/m2 CLR
11:40 46.9 °F 38.8 °F 30.7 in NW 13.8 mph 13.8 mph 73 % 0 in 142.0 W/m2 CLR
11:45 46.9 °F 38.8 °F 30.7 in NW 8.1 mph 8.1 mph 73 % 0 in 144.0 W/m2 CLR
11:50 48 °F 39.4 °F 30.7 in NW 14 mph 14 mph 72 % 0 in 192.0 W/m2 CLR
11:55 48 °F 39 °F 30.7 in NNW 13.8 mph 13.8 mph 71 % 0 in 200.0 W/m2 CLR
12:00 48.9 °F 39.9 °F 30.7 in NW 17.3 mph 17.3 mph 71 % 0 in 200.0 W/m2 CLR
12:05 48.9 °F 39.6 °F 30.7 in NNW 13.8 mph 13.8 mph 70 % 0 in 190.0 W/m2 CLR
12:10 48.9 °F 39.4 °F 30.7 in NW 10.4 mph 10.4 mph 69 % 0 in 206.0 W/m2 CLR
12:15 48.9 °F 39.4 °F 30.7 in NW 16.1 mph 16.1 mph 69 % 0 in 223.0 W/m2 CLR
12:20 48.9 °F 39.6 °F 30.7 in NW 15 mph 15 mph 70 % 0 in 207.0 W/m2 CLR
12:25 48.9 °F 39.4 °F 30.7 in North 12.7 mph 12.7 mph 69 % 0 in 218.0 W/m2 CLR
12:30 50 °F 40.3 °F 30.6 in NNW 13.8 mph 13.8 mph 69 % 0 in 206.0 W/m2 CLR
12:40 50 °F 39.7 °F 30.6 in North 11.5 mph 11.5 mph 68 % 0 in 214.0 W/m2 CLR
12:45 50 °F 39.7 °F 30.6 in NW 13.8 mph 13.8 mph 68 % 0 in 229.0 W/m2 CLR
12:50 50 °F 39.6 °F 30.6 in NNW 11.5 mph 11.5 mph 67 % 0 in 185.0 W/m2 CLR
12:55 50 °F 39.6 °F 30.6 in NNW 13 mph 13 mph 67 % 0 in 232.0 W/m2 CLR
13:00 50 °F 39.6 °F 30.6 in NW 13.8 mph 13.8 mph 67 % 0 in 225.0 W/m2 CLR
13:05 51.1 °F 39.9 °F 30.6 in NNW 13 mph 13 mph 66 % 0 in 209.0 W/m2 CLR
13:10 51.1 °F 39.9 °F 30.6 in WNW 10.4 mph 10.4 mph 66 % 0 in 193.0 W/m2 CLR
13:15 50 °F 39 °F 30.6 in NW 12.7 mph 12.7 mph 66 % 0 in 236.0 W/m2 CLR
13:20 51.1 °F 39.6 °F 30.6 in NW 17.3 mph 17.3 mph 65 % 0 in 313.0 W/m2 CLR
13:25 52 °F 40.6 °F 30.6 in NW 12.7 mph 12.7 mph 65 % 0 in 246.0 W/m2 CLR
13:30 51.1 °F 39.6 °F 30.6 in NW 15 mph 15 mph 65 % 0 in 214.0 W/m2 CLR
13:35 51.1 °F 39.2 °F 30.6 in NNW 10.4 mph 10.4 mph 64 % 0 in 265.0 W/m2 CLR
13:40 51.1 °F 39.6 °F 30.6 in NNW 11.5 mph 11.5 mph 65 % 0 in 202.0 W/m2 CLR
13:45 51.1 °F 39.6 °F 30.6 in North 12.7 mph 12.7 mph 65 % 0 in 167.0 W/m2 CLR
13:50 51.1 °F 39.6 °F 30.6 in NNW 15 mph 15 mph 65 % 0 in 153.0 W/m2 CLR
13:55 51.1 °F 39.6 °F 30.6 in NNW 15 mph 15 mph 65 % 0 in 186.0 W/m2 CLR
14:00 51.1 °F 39.9 °F 30.6 in NNW 13.8 mph 13.8 mph 66 % 0 in 190.0 W/m2 CLR
14:05 51.1 °F 39.9 °F 30.6 in NW 10.4 mph 10.4 mph 66 % 0 in 179.0 W/m2 CLR
14:10 51.1 °F 39.9 °F 30.6 in NNW 13.8 mph 13.8 mph 66 % 0 in 181.0 W/m2 CLR
14:15 51.1 °F 39.9 °F 30.6 in NW 8.1 mph 8.1 mph 66 % 0 in 190.0 W/m2 CLR
14:20 51.1 °F 39.9 °F 30.6 in North 10.4 mph 10.4 mph 66 % 0 in 229.0 W/m2 CLR
14:26 51.1 °F 39.6 °F 30.6 in North 13 mph 13 mph 65 % 0 in 213.0 W/m2 CLR
14:31 52 °F 40.6 °F 30.6 in NW 9.2 mph 9.2 mph 65 % 0 in 183.0 W/m2 CLR
14:36 52 °F 40.3 °F 30.6 in NW 9.2 mph 9.2 mph 64 % 0 in 171.0 W/m2 CLR
14:41 51.1 °F 39.2 °F 30.6 in WNW 10.4 mph 10.4 mph 64 % 0 in 127.0 W/m2 CLR
14:46 51.1 °F 39.6 °F 30.6 in WNW 11.5 mph 11.5 mph 65 % 0 in 121.0 W/m2 CLR
14:51 51.1 °F 39.9 °F 30.6 in North 10.4 mph 10.4 mph 66 % 0 in 410.0 W/m2 CLR
14:56 51.1 °F 39.6 °F 30.6 in NNW 12.7 mph 12.7 mph 65 % 0 in 380.0 W/m2 CLR
15:01 52 °F 40.3 °F 30.6 in NW 11.5 mph 11.5 mph 64 % 0 in 339.0 W/m2 CLR
15:06 52 °F 39.7 °F 30.6 in NW 11.5 mph 11.5 mph 63 % 0 in 323.0 W/m2 CLR
15:11 52 °F 39.7 °F 30.6 in NW 12.7 mph 12.7 mph 63 % 0 in 304.0 W/m2 CLR
15:16 52 °F 39.7 °F 30.6 in WNW 12 mph 12 mph 63 % 0 in 306.0 W/m2 CLR
15:21 52 °F 39.7 °F 30.6 in NNW 11.5 mph 11.5 mph 63 % 0 in 313.0 W/m2 CLR
15:26 52 °F 39.4 °F 30.6 in NW 12.7 mph 12.7 mph 62 % 0 in 271.0 W/m2 CLR
15:31 52 °F 39 °F 30.6 in NW 10.4 mph 10.4 mph 61 % 0 in 258.0 W/m2 CLR
15:36 52 °F 39.4 °F 30.6 in WNW 9.2 mph 9.2 mph 62 % 0 in 234.0 W/m2 CLR
15:41 52 °F 39.4 °F 30.6 in WNW 9.2 mph 9.2 mph 62 % 0 in 230.0 W/m2 CLR
15:46 52 °F 39.4 °F 30.6 in WNW 10.4 mph 10.4 mph 62 % 0 in 213.0 W/m2 CLR
15:51 51.1 °F 38.5 °F 30.6 in WNW 8.1 mph 8.1 mph 62 % 0 in 200.0 W/m2 CLR
15:56 51.1 °F 38.5 °F 30.6 in WNW 9.2 mph 9.2 mph 62 % 0 in 186.0 W/m2 CLR
16:01 51.1 °F 37.9 °F 30.6 in NW 11.5 mph 11.5 mph 61 % 0 in 172.0 W/m2 CLR
16:06 50 °F 37 °F 30.6 in NW 11.5 mph 11.5 mph 61 % 0 in 156.0 W/m2 CLR
16:11 50 °F 37 °F 30.6 in WNW 11.5 mph 11.5 mph 61 % 0 in 144.0 W/m2 CLR
16:16 50 °F 37 °F 30.6 in NNW 11 mph 11 mph 61 % 0 in 130.0 W/m2 CLR
16:21 50 °F 37 °F 30.6 in NNW 10.4 mph 10.4 mph 61 % 0 in 118.0 W/m2 CLR
16:26 50 °F 37 °F 30.6 in NW 9.2 mph 9.2 mph 61 % 0 in 102.0 W/m2 CLR
16:31 50 °F 37 °F 30.6 in NNW 7 mph 7 mph 61 % 0 in 90.0 W/m2 CLR
16:36 50 °F 37 °F 30.6 in NW 9.2 mph 9.2 mph 61 % 0 in 79.0 W/m2 FEW
16:41 48.9 °F 36.1 °F 30.6 in NW 5 mph 5 mph 61 % 0 in 69.0 W/m2 FEW
16:46 48.9 °F 36.1 °F 30.6 in NW 5.8 mph 5.8 mph 61 % 0 in 53.0 W/m2 SCT
16:51 48.9 °F 36.1 °F 30.6 in NW 8.1 mph 8.1 mph 61 % 0 in 40.0 W/m2 BKN
16:56 48.9 °F 36.1 °F 30.6 in NW 6.9 mph 6.9 mph 61 % 0 in 32.0 W/m2 BKN
17:01 48.9 °F 36.1 °F 30.6 in NNW 4.6 mph 4.6 mph 61 % 0 in 23.0 W/m2 BKN
17:11 46.9 °F 35.1 °F 30.6 in WNW 6.9 mph 6.9 mph 63 % 0 in 12.0 W/m2 BKN
17:16 46 °F 34.2 °F 30.6 in NW 3.5 mph 3.5 mph 63 % 0 in 11.0 W/m2 BKN
17:21 45 °F 33.4 °F 30.6 in Calm     64 % 0 in 9.0 W/m2 BKN
17:26 44.1 °F 32.5 °F 30.6 in Calm     64 % 0 in 7.0 W/m2 BKN
17:27 44.1 °F 32.5 °F 30.6 in Calm     64 % 0 in 7.0 W/m2 BKN
17:32 43 °F 32 °F 30.6 in Calm     65 % 0 in 5.0 W/m2 OVC
17:37 42.1 °F 31.1 °F 30.6 in Calm     65 % 0 in 0.0 W/m2 OVC
17:42 41 °F 30.6 °F 30.6 in Calm     66 % 0 in 0.0 W/m2 CLR
17:47 41 °F 30.9 °F 30.6 in Calm     67 % 0 in 0.0 W/m2 CLR
17:53 39.9 °F 29.8 °F 30.6 in WNW 4.6 mph 4.6 mph 67 % 0 in 0.0 W/m2 CLR
17:58 39.9 °F 29.8 °F 30.6 in WNW 3.5 mph   67 % 0 in 0.0 W/m2 CLR
18:03 39.9 °F 29.8 °F 30.6 in Calm     67 % 0 in 0.0 W/m2 CLR
18:08 39 °F 28.9 °F 30.6 in Calm     67 % 0 in 0.0 W/m2 CLR
18:13 37.9 °F 28.4 °F 30.6 in Calm     68 % 0 in 0.0 W/m2 CLR
18:18 37.9 °F 28.4 °F 30.6 in Calm     68 % 0 in 0.0 W/m2 CLR
18:23 37.9 °F 28.8 °F 30.6 in Calm     69 % 0 in 0.0 W/m2 CLR
18:28 37.9 °F 28.8 °F 30.6 in Calm     69 % 0 in 0.0 W/m2 CLR
18:33 37.9 °F 29.8 °F 30.6 in Calm     72 % 0 in 0.0 W/m2 CLR
18:38 37 °F 29.1 °F 30.6 in Calm     73 % 0 in 0.0 W/m2 CLR
18:43 36 °F 28.6 °F 30.6 in Calm     74 % 0 in 0.0 W/m2 CLR
18:48 35.1 °F 27.5 °F 30.6 in Calm     74 % 0 in 0.0 W/m2 CLR
18:53 35.1 °F 27.9 °F 30.6 in Calm     75 % 0 in 0.0 W/m2 CLR
18:58 34 °F 27 °F 30.6 in Calm     75 % 0 in 0.0 W/m2 CLR
19:03 34 °F 27.1 °F 30.6 in Calm     76 % 0 in 0.0 W/m2 CLR
19:08 33.1 °F 26.2 °F 30.6 in Calm     76 % 0 in 0.0 W/m2 CLR
19:13 33.1 °F 26.6 °F 30.7 in Calm     77 % 0 in 0.0 W/m2 CLR
19:18 32 °F 25.5 °F 30.7 in Calm     77 % 0 in 0.0 W/m2 CLR
19:23 32 °F 25.9 °F 30.7 in Calm     78 % 0 in 0.0 W/m2 CLR
19:28 32 °F 25.9 °F 30.7 in Calm     78 % 0 in 0.0 W/m2 CLR
19:33 32 °F 26.2 °F 30.7 in Calm     79 % 0 in 0.0 W/m2 CLR
19:38 30.9 °F 25 °F 30.7 in Calm     78 % 0 in 0.0 W/m2 CLR
19:43 30.9 °F 25 °F 30.7 in Calm     78 % 0 in 0.0 W/m2 CLR
19:48 30.9 °F 25.2 °F 30.7 in Calm     79 % 0 in 0.0 W/m2 CLR
19:53 30.9 °F 25.5 °F 30.7 in Calm     80 % 0 in 0.0 W/m2 CLR
19:58 30.9 °F 25.5 °F 30.7 in Calm     80 % 0 in 0.0 W/m2 CLR
20:03 30 °F 24.6 °F 30.7 in Calm     80 % 0 in 0.0 W/m2 CLR
20:08 30 °F 24.6 °F 30.7 in West 3.5 mph 3.5 mph 80 % 0 in 0.0 W/m2 CLR
20:13 30 °F 25 °F 30.7 in West 4 mph 4 mph 81 % 0 in 0.0 W/m2 CLR
20:18 30 °F 25 °F 30.7 in West 4.6 mph 4.6 mph 81 % 0 in 0.0 W/m2 CLR
20:23 30 °F 25 °F 30.7 in West 4.6 mph 4.6 mph 81 % 0 in 0.0 W/m2 CLR
20:28 30 °F 25 °F 30.7 in West 2.3 mph 2.3 mph 81 % 0 in 0.0 W/m2 CLR
20:33 28.9 °F 24.3 °F 30.7 in West 2 mph 2 mph 82 % 0 in 0.0 W/m2 CLR
20:38 30 °F 25.2 °F 30.7 in Calm     82 % 0 in 0.0 W/m2 CLR
20:43 30 °F 25 °F 30.7 in Calm     81 % 0 in 0.0 W/m2 CLR
20:48 30 °F 25 °F 30.7 in Calm     81 % 0 in 0.0 W/m2 CLR
20:53 30 °F 25 °F 30.7 in West 4.6 mph 4.6 mph 81 % 0 in 0.0 W/m2 CLR
20:58 28.9 °F 23.9 °F 30.7 in Calm     81 % 0 in 0.0 W/m2 CLR
21:03 28.9 °F 23.5 °F 30.7 in West 5 mph 5 mph 80 % 0 in 0.0 W/m2 CLR
21:08 28.9 °F 23.9 °F 30.7 in West 5.8 mph 5.8 mph 81 % 0 in 0.0 W/m2 CLR
21:13 28.9 °F 23.9 °F 30.7 in West 5.8 mph 5.8 mph 81 % 0 in 0.0 W/m2 CLR
21:18 28.9 °F 23.9 °F 30.7 in West 6.9 mph 6.9 mph 81 % 0 in 0.0 W/m2 CLR
21:23 28.9 °F 24.3 °F 30.7 in WSW 4.6 mph 4.6 mph 82 % 0 in 0.0 W/m2 CLR
21:28 28.9 °F 24.3 °F 30.7 in West 2.3 mph 2.3 mph 82 % 0 in 0.0 W/m2 CLR
21:33 28.9 °F 24.3 °F 30.7 in West 2.3 mph 2.3 mph 82 % 0 in 0.0 W/m2 CLR
21:38 28.9 °F 23.9 °F 30.7 in Calm     81 % 0 in 0.0 W/m2 CLR
21:43 28.9 °F 23.9 °F 30.7 in Calm     81 % 0 in 0.0 W/m2 CLR
21:48 28.9 °F 24.3 °F 30.7 in Calm     82 % 0 in 0.0 W/m2 CLR
21:53 28.9 °F 24.8 °F 30.7 in WSW 3.5 mph 3.5 mph 84 % 0 in 0.0 W/m2 CLR
21:58 28 °F 23.7 °F 30.7 in Calm     84 % 0 in 0.0 W/m2 CLR
22:03 28 °F 23.5 °F 30.7 in WSW 1.2 mph 1.2 mph 83 % 0 in 0.0 W/m2 CLR
22:08 28 °F 23.5 °F 30.7 in WSW 1.2 mph   83 % 0 in 0.0 W/m2 CLR
22:13 28 °F 23.5 °F 30.7 in Calm     83 % 0 in 0.0 W/m2 CLR
22:18 28 °F 23.7 °F 30.7 in Calm     84 % 0 in 0.0 W/m2 CLR
22:23 28 °F 24.1 °F 30.7 in Calm     85 % 0 in 0.0 W/m2 CLR
22:28 28 °F 24.1 °F 30.7 in Calm     85 % 0 in 0.0 W/m2 CLR
22:33 28 °F 24.1 °F 30.7 in Calm     85 % 0 in 0.0 W/m2 CLR
22:38 28 °F 24.1 °F 30.7 in Calm     85 % 0 in 0.0 W/m2 CLR
22:43 28 °F 24.1 °F 30.7 in Calm     85 % 0 in 0.0 W/m2 CLR
22:48 28 °F 24.1 °F 30.7 in Calm     85 % 0 in 0.0 W/m2 CLR
22:53 28 °F 24.1 °F 30.7 in Calm     85 % 0 in 0.0 W/m2 CLR
22:58 28 °F 24.4 °F 30.7 in Calm     86 % 0 in 0.0 W/m2 CLR
23:03 28 °F 24.1 °F 30.7 in WSW 2.3 mph 2.3 mph 85 % 0 in 0.0 W/m2 CLR
23:08 28 °F 24.4 °F 30.7 in Calm     86 % 0 in 0.0 W/m2 CLR
23:13 28 °F 24.4 °F 30.7 in Calm     86 % 0 in 0.0 W/m2 CLR
23:18 28 °F 24.1 °F 30.7 in Calm     85 % 0 in 0.0 W/m2 CLR
23:23 28 °F 24.1 °F 30.7 in Calm     85 % 0 in 0.0 W/m2 CLR
23:28 28 °F 24.1 °F 30.7 in Calm     85 % 0 in 0.0 W/m2 CLR
23:33 28 °F 24.1 °F 30.7 in Calm     85 % 0 in 0.0 W/m2 CLR
23:38 28 °F 24.1 °F 30.7 in Calm     85 % 0 in 0.0 W/m2 CLR
23:43 28 °F 24.1 °F 30.7 in Calm     85 % 0 in 0.0 W/m2 CLR
23:48 28 °F 24.4 °F 30.7 in Calm     86 % 0 in 0.0 W/m2 CLR
23:53 28 °F 24.4 °F 30.7 in Calm     86 % 0 in 0.0 W/m2 CLR
23:58 28 °F 24.4 °F 30.7 in Calm     86 % 0 in 0.0 W/m2 CLR
Lo Temps de Massalio
Compliments of Weather Underground - 1.25 mb